Time;durP1;ratioP1;P1;durP2;ratioP2;P2;SDS_P1;SDS_P2;PMS_P1;PMS_P2;Temp;Humidity;BMP_temperature;BMP_pressure;BME280_temperature;BME280_humidity;BME280_pressure;Samples;Min_cycle;Max_cycle;Signal;HPM_P1;HPM_P2
2022/08/17 00:01:29;;;;;;;9.57;6.90;;;;;;;16.01;68.84;93382.72;5029110;28;20290;-68
2022/08/17 00:04:18;;;;;;;11.60;7.47;;;;;;;15.88;69.63;93382.16;5027574;28;20041;-68
2022/08/17 00:06:45;;;;;;;10.85;7.20;;;;;;;15.94;69.05;93389.38;5029852;28;20053;-68
2022/08/17 00:09:16;;;;;;;11.32;7.20;;;;;;;15.98;68.95;93389.97;5029170;28;20116;-68
2022/08/17 00:11:46;;;;;;;10.07;6.97;;;;;;;15.96;69.03;93384.13;5028892;28;20100;-69
2022/08/17 00:14:33;;;;;;;10.30;7.30;;;;;;;16.00;69.10;93377.66;5028488;28;20060;-69
2022/08/17 00:17:02;;;;;;;10.50;6.77;;;;;;;15.96;68.92;93369.53;5029640;28;20071;-68
2022/08/17 00:19:31;;;;;;;11.80;7.47;;;;;;;15.95;69.01;93368.75;5028423;28;20118;-70
2022/08/17 00:21:59;;;;;;;11.88;7.30;;;;;;;15.95;68.76;93374.28;5060797;28;20072;-69
2022/08/17 00:24:46;;;;;;;11.23;7.85;;;;;;;15.88;69.41;93376.63;5028152;28;20479;-68
2022/08/17 00:27:13;;;;;;;9.80;7.25;;;;;;;15.80;69.77;93380.94;5028624;28;20613;-68
2022/08/17 00:29:39;;;;;;;10.37;7.43;;;;;;;15.75;69.99;93383.09;5028750;28;20047;-70
2022/08/17 00:32:07;;;;;;;10.70;7.28;;;;;;;15.72;70.07;93372.16;5028651;28;20047;-68
2022/08/17 00:34:54;;;;;;;10.10;7.70;;;;;;;15.47;71.23;93371.22;5029219;28;20056;-67
2022/08/17 00:37:20;;;;;;;11.18;7.60;;;;;;;15.57;70.51;93369.22;5028622;28;20037;-70
2022/08/17 00:39:47;;;;;;;9.38;7.07;;;;;;;15.60;70.09;93373.06;5028943;28;20103;-68
2022/08/17 00:42:17;;;;;;;10.27;6.80;;;;;;;15.60;69.80;93368.31;5028546;28;20052;-69
2022/08/17 00:44:44;;;;;;;11.77;7.45;;;;;;;15.61;70.02;93366.31;5028903;28;20924;-68
2022/08/17 00:47:10;;;;;;;9.55;7.20;;;;;;;15.61;69.94;93369.81;5028444;28;20100;-68
2022/08/17 00:49:37;;;;;;;11.15;7.40;;;;;;;15.50;70.28;93369.53;5028438;28;20043;-68
2022/08/17 00:52:14;;;;;;;10.77;7.40;;;;;;;15.46;70.43;93364.16;5028551;28;20045;-70
2022/08/17 00:54:44;;;;;;;10.13;7.43;;;;;;;15.42;70.44;93369.06;5028960;28;20055;-68
2022/08/17 00:57:18;;;;;;;10.18;7.35;;;;;;;15.34;71.05;93371.38;5028338;28;20044;-68
2022/08/17 00:59:51;;;;;;;10.60;7.40;;;;;;;15.37;70.97;93376.00;5029020;28;20045;-68
2022/08/17 01:02:32;;;;;;;12.55;7.90;;;;;;;15.37;71.22;93367.69;5027869;28;20046;-68
2022/08/17 01:05:13;;;;;;;11.18;7.60;;;;;;;15.40;71.04;93365.25;5057768;28;20102;-68
2022/08/17 01:07:41;;;;;;;11.50;7.80;;;;;;;15.31;71.58;93364.00;5028657;28;20048;-66
2022/08/17 01:10:11;;;;;;;10.63;7.57;;;;;;;15.30;71.80;93361.69;5028221;28;20042;-68
2022/08/17 01:13:01;;;;;;;11.35;7.75;;;;;;;15.37;71.55;93355.84;5028588;28;20037;-67
2022/08/17 01:15:35;;;;;;;11.95;7.78;;;;;;;15.33;71.34;93352.47;5007822;28;20450;-68
2022/08/17 01:18:06;;;;;;;10.77;7.70;;;;;;;15.26;71.55;93356.31;5008697;28;20056;-66
2022/08/17 01:20:37;;;;;;;16.50;10.80;;;;;;;15.24;71.32;93358.00;5008791;28;20057;-69
2022/08/17 01:23:16;;;;;;;18.40;11.20;;;;;;;15.32;71.01;93362.75;5008708;28;20049;-67
2022/08/17 01:25:55;;;;;;;11.38;8.23;;;;;;;15.22;71.28;93368.75;5000097;28;20045;-69
2022/08/17 01:28:26;;;;;;;11.45;7.80;;;;;;;15.05;72.24;93373.78;5012081;28;20378;-66
2022/08/17 01:31:12;;;;;;;10.73;7.45;;;;;;;14.97;72.63;93365.78;5012527;28;20049;-67
2022/08/17 01:33:39;;;;;;;10.23;7.47;;;;;;;15.06;72.28;93369.81;5012528;28;20050;-66
2022/08/17 01:36:07;;;;;;;13.18;9.10;;;;;;;15.06;72.52;93370.56;5012138;28;20038;-66
2022/08/17 01:38:35;;;;;;;14.30;9.73;;;;;;;15.04;72.21;93377.78;5012594;28;20056;-66
2022/08/17 01:41:09;;;;;;;12.60;8.13;;;;;;;15.14;71.78;93377.31;5012269;28;20046;-65
2022/08/17 01:43:53;;;;;;;12.73;8.25;;;;;;;15.15;71.78;93375.31;5011405;28;20062;-68
2022/08/17 01:46:26;;;;;;;19.30;14.17;;;;;;;15.05;72.33;93373.78;5012876;28;20050;-68
2022/08/17 01:48:55;;;;;;;13.07;9.00;;;;;;;14.94;72.70;93372.22;5012899;28;20058;-69
2022/08/17 01:51:26;;;;;;;10.77;8.50;;;;;;;14.46;75.07;93380.00;5012125;28;20042;-68
2022/08/17 01:53:56;;;;;;;14.70;8.48;;;;;;;14.61;74.65;93382.25;5012637;28;20054;-68
2022/08/17 01:56:25;;;;;;;12.00;8.38;;;;;;;14.77;74.14;93388.31;5012148;28;20045;-68
2022/08/17 01:58:52;;;;;;;14.23;8.50;;;;;;;14.58;75.12;93389.44;5012324;28;20041;-69
2022/08/17 02:01:22;;;;;;;12.15;8.77;;;;;;;14.44;75.48;93401.03;5012089;28;20052;-68
2022/08/17 02:03:49;;;;;;;12.60;8.55;;;;;;;14.02;77.13;93398.66;5012093;28;20042;-69
2022/08/17 02:06:29;;;;;;;13.95;8.70;;;;;;;14.30;76.72;93396.81;5031242;28;20303;-70
2022/08/17 02:08:57;;;;;;;11.05;8.05;;;;;;;14.64;75.08;93401.44;5032253;28;20060;-68
2022/08/17 02:11:32;;;;;;;13.33;8.03;;;;;;;14.75;74.63;93401.03;5031013;28;20761;-70
2022/08/17 02:14:00;;;;;;;12.73;8.10;;;;;;;14.87;73.91;93407.66;5031969;28;20045;-68
2022/08/17 02:16:32;;;;;;;12.30;8.05;;;;;;;14.97;73.57;93401.72;5061911;28;21421;-70
2022/08/17 02:19:06;;;;;;;10.82;7.80;;;;;;;15.10;73.19;93404.34;5031141;28;20049;-68
2022/08/17 02:21:33;;;;;;;13.40;8.20;;;;;;;15.18;72.86;93416.66;5030306;28;20041;-67
2022/08/17 02:24:01;;;;;;;11.47;8.10;;;;;;;15.30;72.63;93423.28;5031534;28;20057;-69
2022/08/17 02:26:27;;;;;;;14.23;9.68;;;;;;;15.40;72.44;93434.34;5030689;28;21708;-68
2022/08/17 02:28:54;;;;;;;12.73;8.88;;;;;;;15.11;72.94;93433.53;5031283;28;20053;-68
2022/08/17 02:31:21;;;;;;;12.88;8.60;;;;;;;14.87;73.99;93436.06;5031254;28;20037;-68
2022/08/17 02:33:48;;;;;;;15.10;9.23;;;;;;;14.03;78.04;93449.84;5031367;28;20048;-68
2022/08/17 02:36:29;;;;;;;11.73;8.40;;;;;;;14.47;76.39;93436.78;5030541;28;20842;-69
2022/08/17 02:38:57;;;;;;;11.40;7.82;;;;;;;14.91;74.73;93439.47;5031443;28;20053;-67
2022/08/17 02:41:24;;;;;;;11.52;8.40;;;;;;;15.08;73.76;93439.97;5029868;28;20045;-68
2022/08/17 02:43:52;;;;;;;11.40;8.10;;;;;;;15.13;73.83;93433.84;5027256;28;20045;-67
2022/08/17 02:46:19;;;;;;;11.73;8.50;;;;;;;15.18;74.03;93438.00;5031514;28;20037;-67
2022/08/17 02:48:46;;;;;;;13.93;9.07;;;;;;;15.24;73.44;93436.16;5031161;28;20041;-68
2022/08/17 02:51:13;;;;;;;11.90;8.65;;;;;;;15.33;72.86;93432.63;5030391;28;20060;-68
2022/08/17 02:53:40;;;;;;;12.05;8.57;;;;;;;15.38;72.08;93435.56;5030880;28;20045;-69
2022/08/17 02:56:07;;;;;;;12.23;8.20;;;;;;;15.33;73.06;93432.63;5030873;28;20084;-68
2022/08/17 02:58:33;;;;;;;13.15;8.43;;;;;;;15.14;73.70;93431.84;5030578;28;20045;-69
2022/08/17 03:01:06;;;;;;;11.70;8.20;;;;;;;15.09;74.15;93438.75;5030577;28;20060;-67
2022/08/17 03:03:34;;;;;;;11.98;8.20;;;;;;;15.17;73.78;93437.22;5030903;28;20479;-68
2022/08/17 03:06:00;;;;;;;21.38;13.65;;;;;;;15.20;73.05;93452.13;5031199;28;20042;-68
2022/08/17 03:08:27;;;;;;;12.85;9.57;;;;;;;15.41;72.23;93449.72;5030023;28;20222;-69
2022/08/17 03:10:55;;;;;;;12.15;8.65;;;;;;;15.46;72.50;93449.13;5030481;28;20395;-67
2022/08/17 03:13:22;;;;;;;11.43;8.10;;;;;;;15.34;72.93;93453.53;5030545;28;20519;-67
2022/08/17 03:15:49;;;;;;;15.88;8.68;;;;;;;15.43;72.81;93458.31;5030297;28;20147;-68
2022/08/17 03:18:18;;;;;;;11.82;8.00;;;;;;;15.52;72.20;93450.81;5030364;28;20071;-69
2022/08/17 03:20:59;;;;;;;11.43;8.40;;;;;;;15.58;71.39;93445.44;5030566;28;20044;-68
2022/08/17 03:23:27;;;;;;;11.60;8.18;;;;;;;15.70;70.83;93438.22;5030132;28;20038;-67
2022/08/17 03:25:56;;;;;;;13.23;8.30;;;;;;;15.81;70.34;93438.56;5030382;28;20433;-67
2022/08/17 03:28:23;;;;;;;12.60;8.55;;;;;;;15.82;70.83;93439.34;5029694;28;20037;-67
2022/08/17 03:30:50;;;;;;;14.13;8.40;;;;;;;15.90;69.81;93446.09;5029849;28;20045;-69
2022/08/17 03:33:18;;;;;;;13.70;8.52;;;;;;;15.96;69.89;93447.78;5029856;28;20033;-68
2022/08/17 03:35:45;;;;;;;12.20;8.10;;;;;;;15.88;70.46;93443.78;5030239;28;20134;-68
2022/08/17 03:38:15;;;;;;;13.20;8.43;;;;;;;15.45;72.12;93451.09;5029671;28;20042;-69
2022/08/17 03:40:45;;;;;;;14.23;9.43;;;;;;;15.29;72.95;93456.91;5030077;28;20053;-69
2022/08/17 03:43:27;;;;;;;14.77;8.55;;;;;;;15.38;72.39;93457.69;5029858;28;20048;-68
2022/08/17 03:57:17;;;;;;;12.15;8.18;;;;;;;15.54;71.63;93455.88;5029641;28;20070;-67
2022/08/17 03:59:45;;;;;;;11.90;8.57;;;;;;;15.60;71.29;93461.59;5029543;28;20072;-67
2022/08/17 04:02:36;;;;;;;13.82;8.43;;;;;;;15.70;70.99;93465.91;5029401;28;20045;-68
2022/08/17 04:05:03;;;;;;;12.30;8.40;;;;;;;15.76;71.01;93455.78;5029324;28;20043;-65
2022/08/17 04:07:30;;;;;;;13.93;8.90;;;;;;;15.92;70.07;93457.47;5029725;28;20465;-67
2022/08/17 04:09:58;;;;;;;13.15;8.68;;;;;;;16.02;69.72;93461.00;5029298;28;20052;-68
2022/08/17 04:12:29;;;;;;;13.15;8.52;;;;;;;16.12;69.45;93460.53;5013806;28;20102;-70
2022/08/17 04:14:57;;;;;;;12.05;8.48;;;;;;;16.22;69.40;93458.53;5029458;28;20051;-68
2022/08/17 04:17:26;;;;;;;14.67;8.93;;;;;;;16.31;69.03;93452.97;5029021;28;20045;-65
2022/08/17 04:19:53;;;;;;;12.88;8.27;;;;;;;16.38;68.89;93457.44;5029595;28;20178;-66
2022/08/17 04:22:21;;;;;;;11.15;8.60;;;;;;;16.28;68.76;93447.59;5029153;28;20045;-66
2022/08/17 04:25:31;;;;;;;12.18;8.35;;;;;;;16.34;68.87;93445.75;5016584;28;20051;-66
2022/08/17 04:27:59;;;;;;;10.98;8.40;;;;;;;16.38;68.23;93446.38;5015716;28;21867;-66
2022/08/17 04:30:28;;;;;;;12.23;8.17;;;;;;;16.36;68.20;93455.13;5029025;28;20047;-66
2022/08/17 04:32:59;;;;;;;12.70;8.60;;;;;;;16.40;67.77;93451.41;5029100;28;20045;-68
2022/08/17 04:35:41;;;;;;;10.98;8.07;;;;;;;16.51;67.38;93437.84;5026357;28;20871;-67
2022/08/17 04:38:11;;;;;;;11.88;7.95;;;;;;;16.57;67.14;93436.00;5028929;28;20387;-67
2022/08/17 04:43:26;;;;;;;12.50;8.20;;;;;;;16.64;67.01;93438.44;5028829;28;20045;-68
2022/08/17 04:45:56;;;;;;;11.32;8.50;;;;;;;16.83;66.47;93441.94;5028862;28;20478;-67
2022/08/17 04:48:26;;;;;;;11.35;7.78;;;;;;;17.03;65.64;93435.09;5028649;28;20053;-71
2022/08/17 04:51:05;;;;;;;15.20;8.30;;;;;;;17.23;65.03;93445.63;5028005;28;20047;-66
2022/08/17 04:53:32;;;;;;;11.80;8.20;;;;;;;17.38;64.38;93440.91;5028797;28;20448;-70
2022/08/17 04:55:59;;;;;;;11.67;7.70;;;;;;;17.67;63.43;93450.59;5028476;28;20044;-67
2022/08/17 04:58:26;;;;;;;12.48;7.95;;;;;;;17.84;62.80;93448.94;5028213;28;20060;-66
2022/08/17 05:00:53;;;;;;;10.75;7.55;;;;;;;18.22;61.70;93441.09;5028529;28;20053;-66
2022/08/17 05:03:19;;;;;;;12.45;8.10;;;;;;;18.25;61.35;93443.69;5020004;28;20045;-66
2022/08/17 05:05:48;;;;;;;10.90;7.43;;;;;;;18.50;60.74;93445.13;5028518;28;20069;-69
2022/08/17 05:08:17;;;;;;;10.47;7.47;;;;;;;18.76;59.71;93458.47;5028174;28;20415;-69
2022/08/17 05:10:45;;;;;;;10.82;7.70;;;;;;;18.72;60.08;93446.78;5028453;28;20076;-68
2022/08/17 05:13:18;;;;;;;10.07;7.40;;;;;;;18.98;59.48;93449.75;5028195;28;20056;-68
2022/08/17 05:15:47;;;;;;;10.50;7.15;;;;;;;19.16;59.01;93446.72;5028223;28;20037;-68
2022/08/17 05:18:15;;;;;;;11.65;7.30;;;;;;;19.36;58.57;93448.78;5028087;28;20075;-68
2022/08/17 05:20:42;;;;;;;10.17;7.23;;;;;;;19.48;58.32;93457.31;5028306;28;20053;-70
2022/08/17 05:23:13;;;;;;;10.23;7.35;;;;;;;19.42;58.47;93457.22;5027896;28;20041;-68
2022/08/17 05:25:44;;;;;;;11.75;7.30;;;;;;;19.48;58.12;93458.06;5028504;28;20055;-72
2022/08/17 05:28:18;;;;;;;10.50;6.90;;;;;;;19.84;57.37;93453.25;5014517;28;20389;-68
2022/08/17 05:30:55;;;;;;;10.57;7.50;;;;;;;19.83;57.51;93451.72;5028269;28;20056;-68
2022/08/17 05:33:28;;;;;;;10.07;6.70;;;;;;;19.66;57.94;93464.63;5027825;28;20497;-68
2022/08/17 05:35:57;;;;;;;9.18;6.80;;;;;;;19.61;58.29;93471.66;5018395;28;20060;-69
2022/08/17 05:38:25;;;;;;;10.50;6.82;;;;;;;19.89;57.40;93483.19;5027493;28;20068;-70
2022/08/17 05:40:53;;;;;;;9.73;6.85;;;;;;;20.03;57.05;93475.25;5027981;28;20080;-69
2022/08/17 05:43:23;;;;;;;10.68;7.30;;;;;;;20.31;56.78;93481.16;5027897;28;20075;-68
2022/08/17 05:46:00;;;;;;;11.73;7.40;;;;;;;20.42;55.80;93489.63;5026635;28;20041;-68
2022/08/17 05:48:32;;;;;;;9.50;7.07;;;;;;;20.72;55.24;93481.84;5027442;28;20402;-69
2022/08/17 05:51:30;;;;;;;10.23;7.10;;;;;;;20.93;55.20;93487.38;5012188;28;20118;-68
2022/08/17 05:54:19;;;;;;;10.38;6.78;;;;;;;21.21;54.55;93481.25;5027975;28;20046;-70
2022/08/17 05:57:07;;;;;;;9.35;6.90;;;;;;;20.53;55.46;93486.19;5005143;28;20453;-68
2022/08/17 05:59:38;;;;;;;9.90;7.47;;;;;;;20.37;56.05;93487.56;5027227;28;20867;-70
2022/08/17 06:02:17;;;;;;;10.02;7.20;;;;;;;21.15;54.06;93484.78;5025762;28;20063;-68
2022/08/17 06:05:04;;;;;;;8.82;7.05;;;;;;;20.74;54.91;93492.50;5028634;28;20041;-67
2022/08/17 06:07:55;;;;;;;9.57;6.95;;;;;;;20.52;55.85;93493.81;5027382;28;21465;-67
2022/08/17 06:10:39;;;;;;;10.55;7.15;;;;;;;20.33;56.52;93498.16;5029571;28;20059;-67
2022/08/17 06:13:35;;;;;;;10.27;7.00;;;;;;;20.59;55.74;93503.78;5031195;28;20448;-67
2022/08/17 06:16:06;;;;;;;10.75;6.60;;;;;;;20.30;56.48;93490.75;5017780;28;20049;-68
2022/08/17 06:18:59;;;;;;;10.07;7.40;;;;;;;19.68;58.22;93501.09;5021163;28;20048;-68
2022/08/17 06:21:32;;;;;;;10.10;7.10;;;;;;;19.93;57.49;93502.47;5030919;28;20045;-67
2022/08/17 06:24:16;;;;;;;9.07;7.30;;;;;;;20.26;56.89;93506.91;5031590;28;20398;-71
2022/08/17 06:26:44;;;;;;;10.13;7.10;;;;;;;20.30;56.65;93513.03;5030611;28;20413;-67
2022/08/17 06:29:14;;;;;;;9.52;7.05;;;;;;;20.08;57.18;93511.53;5030816;28;20041;-68
2022/08/17 06:31:44;;;;;;;10.50;7.35;;;;;;;19.90;58.00;93495.09;5031420;28;20068;-74
2022/08/17 06:34:11;;;;;;;9.50;7.03;;;;;;;20.00;57.79;93481.78;5030859;28;20402;-67
2022/08/17 06:37:20;;;;;;;13.18;7.25;;;;;;;20.14;57.24;93484.53;5031577;28;20048;-70
2022/08/17 06:40:13;;;;;;;12.00;6.80;;;;;;;20.26;56.71;93482.63;5022174;28;20046;-69
2022/08/17 06:42:57;;;;;;;11.68;7.15;;;;;;;20.12;56.90;93483.44;5016895;28;20781;-68
2022/08/17 06:45:48;;;;;;;11.60;6.88;;;;;;;20.51;56.01;93489.47;5030454;28;20092;-69
2022/08/17 06:48:31;;;;;;;13.35;7.20;;;;;;;20.88;55.06;93480.47;5030807;28;20034;-68
2022/08/17 06:51:03;;;;;;;12.88;7.05;;;;;;;20.91;54.76;93481.53;5030925;28;20045;-69
2022/08/17 06:53:52;;;;;;;12.17;7.70;;;;;;;22.13;52.02;93482.06;5030610;28;21928;-68
2022/08/17 06:56:43;;;;;;;10.18;6.88;;;;;;;24.88;45.32;93471.94;5030807;28;20063;-71
2022/08/17 06:59:32;;;;;;;9.02;7.10;;;;;;;22.62;50.10;93471.59;5030528;28;20375;-68
2022/08/17 07:02:35;;;;;;;9.55;6.80;;;;;;;21.50;52.93;93471.84;5026831;28;20038;-68
2022/08/17 07:05:23;;;;;;;11.65;7.20;;;;;;;21.18;53.93;93471.09;5020712;28;20041;-68
2022/08/17 07:08:10;;;;;;;10.90;7.40;;;;;;;20.88;54.81;93469.31;5030778;28;20384;-68
2022/08/17 07:10:45;;;;;;;9.75;7.20;;;;;;;21.01;54.62;93482.88;5024553;28;21851;-68
2022/08/17 07:13:39;;;;;;;9.38;7.03;;;;;;;21.14;54.02;93491.59;5030534;28;20042;-69
2022/08/17 07:16:20;;;;;;;10.25;6.80;;;;;;;21.04;53.85;93503.44;5030089;28;20485;-68
2022/08/17 07:18:52;;;;;;;9.35;6.72;;;;;;;20.86;54.84;93496.19;5030444;28;20061;-69
2022/08/17 07:21:37;;;;;;;9.23;6.40;;;;;;;20.68;54.62;93511.97;5029143;28;20429;-68
2022/08/17 07:24:19;;;;;;;8.07;6.35;;;;;;;20.65;55.49;93512.22;5030020;28;20049;-68
2022/08/17 07:27:09;;;;;;;8.75;6.82;;;;;;;20.94;54.71;93514.00;5030280;28;20163;-68
2022/08/17 07:29:46;;;;;;;8.98;6.45;;;;;;;20.81;54.41;93511.59;5029657;28;21923;-71
2022/08/17 07:32:17;;;;;;;8.15;6.07;;;;;;;21.09;53.45;93514.66;5029988;28;20037;-70
2022/08/17 07:35:27;;;;;;;8.57;6.13;;;;;;;20.83;54.08;93508.34;5030364;28;20509;-68
2022/08/17 07:38:06;;;;;;;7.90;5.93;;;;;;;20.73;54.30;93518.88;5025932;28;20855;-69
2022/08/17 07:41:01;;;;;;;9.55;6.00;;;;;;;20.59;54.65;93520.50;5030148;28;20057;-68
2022/08/17 07:43:31;;;;;;;8.80;5.50;;;;;;;21.30;53.09;93512.53;5029376;28;21405;-69
2022/08/17 07:49:07;;;;;;;7.53;5.80;;;;;;;20.87;53.98;93520.03;5028856;28;20733;-69
2022/08/17 07:51:42;;;;;;;10.40;6.03;;;;;;;21.10;53.90;93512.63;5029182;28;20045;-69
2022/08/17 07:54:17;;;;;;;9.27;6.03;;;;;;;21.15;53.45;93509.13;5029058;28;20072;-71
2022/08/17 07:56:54;;;;;;;7.93;5.80;;;;;;;21.40;52.83;93520.72;5029948;28;20042;-67
2022/08/17 07:59:35;;;;;;;8.55;5.80;;;;;;;21.28;52.73;93520.63;5060776;28;20045;-67
2022/08/17 08:02:21;;;;;;;11.40;5.77;;;;;;;21.00;54.01;93517.59;5024611;28;20572;-66
2022/08/17 08:05:02;;;;;;;8.80;6.03;;;;;;;21.05;53.36;93521.72;5015767;28;20038;-67
2022/08/17 08:07:38;;;;;;;9.23;5.65;;;;;;;21.32;53.07;93520.41;5028828;28;20669;-67
2022/08/17 08:10:12;;;;;;;9.77;5.80;;;;;;;21.49;52.34;93520.56;5028864;28;20048;-69
2022/08/17 08:12:47;;;;;;;9.63;5.70;;;;;;;21.50;51.86;93506.13;5029498;28;20046;-68
2022/08/17 08:15:21;;;;;;;8.57;5.53;;;;;;;21.71;51.89;93508.78;5029090;28;20509;-70
2022/08/17 08:17:57;;;;;;;7.35;5.30;;;;;;;22.37;50.34;93498.47;5029562;28;20039;-69
2022/08/17 08:20:40;;;;;;;10.68;5.57;;;;;;;22.43;50.05;93495.69;5029150;28;20033;-67
2022/08/17 08:23:43;;;;;;;9.02;5.30;;;;;;;22.72;49.12;93486.13;5028973;28;20051;-67
2022/08/17 08:26:19;;;;;;;6.03;4.80;;;;;;;22.84;48.47;93486.88;5028743;28;20038;-67
2022/08/17 08:29:17;;;;;;;7.00;4.93;;;;;;;21.94;50.57;93490.13;5015837;28;20044;-67
2022/08/17 08:32:10;;;;;;;7.57;4.80;;;;;;;22.36;49.17;93487.81;5028210;28;20246;-68
2022/08/17 08:34:43;;;;;;;7.38;4.50;;;;;;;22.67;48.64;93481.25;5028120;28;20727;-67
2022/08/17 08:38:04;;;;;;;8.38;5.07;;;;;;;24.00;45.53;93481.00;5028435;28;20223;-68
2022/08/17 08:40:34;;;;;;;6.30;3.97;;;;;;;24.28;43.71;93489.31;4991825;28;20667;-70
2022/08/17 08:43:21;;;;;;;4.77;3.60;;;;;;;23.93;44.55;93496.31;5028763;28;20079;-68
2022/08/17 08:46:19;;;;;;;4.90;3.80;;;;;;;25.46;40.58;93506.78;5011576;28;20697;-68
2022/08/17 08:49:00;;;;;;;4.93;3.80;;;;;;;27.46;37.28;93508.28;5022653;28;20461;-70
2022/08/17 08:51:55;;;;;;;5.55;3.90;;;;;;;27.45;36.01;93506.78;5026808;28;20640;-68
2022/08/17 08:54:32;;;;;;;6.13;3.80;;;;;;;28.59;33.85;93507.06;5027914;28;20060;-69
2022/08/17 08:57:20;;;;;;;4.57;3.50;;;;;;;28.52;34.34;93504.16;5028483;28;20071;-68
2022/08/17 09:00:15;;;;;;;6.97;3.60;;;;;;;27.92;34.91;93499.88;5014480;28;21496;-67
2022/08/17 09:02:56;;;;;;;5.68;3.70;;;;;;;26.07;37.91;93511.09;5027935;28;20079;-71
2022/08/17 09:05:38;;;;;;;5.60;3.67;;;;;;;26.15;38.31;93516.88;5028385;28;20052;-68
2022/08/17 09:08:52;;;;;;;4.82;3.85;;;;;;;27.41;35.64;93517.63;5027995;28;20092;-69
2022/08/17 09:11:34;;;;;;;4.57;3.80;;;;;;;28.98;33.40;93516.03;5010825;28;20042;-68
2022/08/17 09:14:31;;;;;;;7.65;6.00;;;;;;;28.70;33.18;93511.75;5028076;28;20329;-67
2022/08/17 09:17:23;;;;;;;5.65;4.30;;;;;;;28.66;32.76;93514.88;5056490;28;20134;-70
2022/08/17 09:20:18;;;;;;;7.55;4.10;;;;;;;30.91;30.63;93518.44;5028499;28;20044;-69
2022/08/17 09:23:31;;;;;;;6.35;3.90;;;;;;;27.49;36.12;93524.16;5027940;28;20752;-71
2022/08/17 09:26:08;;;;;;;5.50;3.90;;;;;;;28.05;34.19;93525.25;5047246;28;20125;-68
2022/08/17 09:28:41;;;;;;;5.28;3.80;;;;;;;27.42;35.67;93530.41;5009693;28;20049;-67
2022/08/17 09:31:19;;;;;;;4.85;3.90;;;;;;;29.19;31.66;93530.22;5027820;28;20053;-71
2022/08/17 09:33:47;;;;;;;6.20;3.90;;;;;;;30.95;28.17;93516.00;5028499;28;20103;-71
2022/08/17 09:36:39;;;;;;;5.38;3.60;;;;;;;29.34;31.06;93523.97;5059589;28;20060;-70
2022/08/17 09:39:23;;;;;;;7.37;3.70;;;;;;;30.63;29.29;93526.41;5027827;28;20067;-68
2022/08/17 09:42:28;;;;;;;4.15;3.42;;;;;;;34.05;23.99;93527.13;5028486;28;20092;-69
2022/08/17 09:45:14;;;;;;;5.68;3.53;;;;;;;35.63;21.40;93525.91;4974476;28;20603;-69
2022/08/17 09:47:56;;;;;;;4.90;3.40;;;;;;;38.24;18.60;93517.44;5025926;28;20077;-69
2022/08/17 09:50:29;;;;;;;5.55;3.40;;;;;;;38.39;18.15;93514.19;5018475;28;20573;-69
2022/08/17 09:53:16;;;;;;;4.83;3.10;;;;;;;37.12;19.43;93525.94;5031525;28;20045;-69
2022/08/17 09:56:07;;;;;;;4.65;3.30;;;;;;;35.35;20.82;93536.53;5032301;28;20034;-70
2022/08/17 09:59:05;;;;;;;6.03;3.53;;;;;;;33.22;23.34;93527.78;5022590;28;20561;-69
2022/08/17 10:01:43;;;;;;;4.93;3.83;;;;;;;28.32;29.86;93531.69;5021746;28;20669;-68
2022/08/17 10:04:23;;;;;;;5.18;3.97;;;;;;;28.58;30.55;93533.03;5031306;28;20041;-68
2022/08/17 10:06:56;;;;;;;6.93;3.90;;;;;;;31.91;25.96;93533.63;5032077;28;20052;-69
2022/08/17 10:09:45;;;;;;;5.95;3.58;;;;;;;32.11;25.42;93534.81;5031387;28;20079;-68
2022/08/17 10:12:35;;;;;;;8.40;4.30;;;;;;;28.98;29.79;93532.97;5031217;28;20056;-68
2022/08/17 10:15:25;;;;;;;8.68;4.05;;;;;;;29.12;29.81;93531.66;5011144;28;20056;-70
2022/08/17 10:18:19;;;;;;;5.28;3.90;;;;;;;27.60;31.90;93526.78;5031046;28;20050;-70
2022/08/17 10:26:40;;;;;;;6.53;4.05;;;;;;;30.01;28.12;93536.50;5030481;28;20694;-69
2022/08/17 10:29:40;;;;;;;5.35;3.30;;;;;;;31.79;27.09;93526.81;5030578;28;20045;-68
2022/08/17 10:32:34;;;;;;;6.45;3.70;;;;;;;32.07;26.37;93531.59;5031004;28;20029;-69
2022/08/17 10:35:32;;;;;;;5.07;3.43;;;;;;;35.30;22.42;93534.72;5031206;28;20487;-69
2022/08/17 10:38:28;;;;;;;5.95;3.58;;;;;;;36.51;21.01;93529.91;5030016;28;20071;-71
2022/08/17 10:41:01;;;;;;;4.65;3.70;;;;;;;36.39;21.35;93536.19;5017455;28;20045;-71
2022/08/17 10:43:40;;;;;;;4.47;3.35;;;;;;;36.23;20.91;93529.22;5030623;28;20112;-69
2022/08/17 10:46:23;;;;;;;4.25;3.40;;;;;;;37.10;19.75;93542.94;5030659;28;20048;-70
2022/08/17 10:49:15;;;;;;;5.57;3.40;;;;;;;36.40;20.64;93545.50;5030964;28;20049;-71
2022/08/17 10:51:46;;;;;;;6.75;3.60;;;;;;;31.64;25.41;93553.09;5030195;28;21069;-70
2022/08/17 10:54:34;;;;;;;5.05;3.45;;;;;;;32.97;24.46;93550.44;5030395;28;20076;-69
2022/08/17 10:57:21;;;;;;;6.05;3.95;;;;;;;31.69;25.75;93568.41;5030121;28;20041;-69
2022/08/17 10:59:50;;;;;;;5.05;3.40;;;;;;;30.26;27.03;93581.41;5009155;28;20376;-68
2022/08/17 11:02:52;;;;;;;4.87;3.37;;;;;;;30.64;26.48;93575.28;5010260;28;20050;-68
2022/08/17 11:05:38;;;;;;;5.35;3.65;;;;;;;28.79;29.60;93562.09;4994083;28;20544;-69
2022/08/17 11:08:18;;;;;;;5.07;3.85;;;;;;;29.56;29.18;93543.25;5010255;28;20101;-68
2022/08/17 11:11:16;;;;;;;5.88;3.70;;;;;;;29.22;30.36;93557.41;5010889;28;20042;-70
2022/08/17 11:14:09;;;;;;;7.03;3.83;;;;;;;28.32;32.81;93570.47;5008176;28;20072;-68
2022/08/17 11:16:46;;;;;;;7.80;4.10;;;;;;;29.00;32.00;93570.66;5025566;28;20755;-68
2022/08/17 11:19:42;;;;;;;5.85;3.67;;;;;;;29.42;31.97;93587.78;5030293;28;20037;-68
2022/08/17 11:22:41;;;;;;;8.25;4.50;;;;;;;28.57;33.65;93583.06;5030019;28;20482;-69
2022/08/17 11:25:18;;;;;;;7.18;3.85;;;;;;;28.74;32.97;93579.94;5029901;28;20041;-69
2022/08/17 11:27:52;;;;;;;7.07;4.13;;;;;;;28.90;32.55;93577.31;5030624;28;20052;-69
2022/08/17 11:30:39;;;;;;;5.53;4.10;;;;;;;27.63;34.71;93581.34;5029870;28;20045;-68
2022/08/17 11:33:27;;;;;;;5.47;4.10;;;;;;;27.86;34.60;93564.81;5030010;28;20056;-69
2022/08/17 11:36:11;;;;;;;7.38;4.13;;;;;;;27.04;36.11;93573.41;5017303;28;20041;-67
2022/08/17 11:38:56;;;;;;;5.43;4.13;;;;;;;27.87;35.15;93566.38;5029365;28;20727;-68
2022/08/17 11:41:37;;;;;;;6.50;3.90;;;;;;;28.50;33.79;93552.69;5029884;28;20045;-68
2022/08/17 11:44:51;;;;;;;5.43;4.23;;;;;;;28.23;33.46;93554.69;5029620;28;20048;-69
2022/08/17 11:53:55;;;;;;;7.50;4.35;;;;;;;27.57;34.27;93539.13;5029387;28;21519;-69
2022/08/17 11:56:47;;;;;;;5.60;4.20;;;;;;;27.89;33.33;93541.22;5016273;28;20116;-70
2022/08/17 11:59:42;;;;;;;5.67;3.80;;;;;;;27.94;31.98;93531.88;5029234;28;20087;-68
2022/08/17 12:02:29;;;;;;;5.65;4.00;;;;;;;27.94;32.60;93537.50;5013448;28;20407;-68
2022/08/17 12:05:16;;;;;;;5.32;4.05;;;;;;;27.95;32.52;93532.63;5029793;28;20033;-68
2022/08/17 12:07:59;;;;;;;7.78;4.43;;;;;;;26.98;34.28;93544.56;5028087;28;20041;-70
2022/08/17 12:10:33;;;;;;;7.95;4.53;;;;;;;27.40;33.50;93530.16;5029295;28;20059;-70
2022/08/17 12:13:05;;;;;;;7.33;4.50;;;;;;;26.50;35.44;93534.91;5028207;28;20056;-68
2022/08/17 12:15:40;;;;;;;5.55;4.40;;;;;;;26.99;34.89;93525.63;5028939;28;22094;-69
2022/08/17 12:18:16;;;;;;;5.75;4.30;;;;;;;27.31;33.45;93534.16;5027826;28;20447;-69
2022/08/17 12:20:49;;;;;;;5.97;4.65;;;;;;;26.97;34.76;93533.84;5029463;28;20037;-69
2022/08/17 12:23:28;;;;;;;6.78;4.45;;;;;;;27.59;34.38;93527.31;5028536;28;20116;-69
2022/08/17 12:26:03;;;;;;;6.60;4.20;;;;;;;27.12;33.11;93528.50;5024434;28;20042;-70
2022/08/17 12:28:34;;;;;;;8.05;3.92;;;;;;;26.90;33.19;93521.91;5024987;28;22283;-69
2022/08/17 12:31:06;;;;;;;9.82;4.60;;;;;;;26.57;33.83;93520.25;5029562;28;20038;-67
2022/08/17 12:33:35;;;;;;;6.55;4.57;;;;;;;26.45;33.32;93521.69;5028215;28;20758;-69
2022/08/17 12:36:07;;;;;;;6.90;5.00;;;;;;;26.38;33.60;93525.06;5028963;28;20041;-63
2022/08/17 12:38:36;;;;;;;8.03;4.77;;;;;;;26.61;33.96;93523.53;5029215;28;20041;-67
2022/08/17 12:44:03;;;;;;;8.40;4.60;;;;;;;26.99;33.06;93520.75;5029261;28;20049;-67
2022/08/17 12:46:47;;;;;;;6.68;4.30;;;;;;;27.47;31.45;93513.41;5028085;28;20844;-67
2022/08/17 12:49:25;;;;;;;5.45;4.30;;;;;;;27.78;31.25;93518.81;5012533;28;20071;-68
2022/08/17 12:52:00;;;;;;;9.40;4.30;;;;;;;27.52;31.04;93513.84;5029090;28;20112;-68